Time;durP1;ratioP1;P1;durP2;ratioP2;P2;SDS_P1;SDS_P2;PMS_P1;PMS_P2;Temp;Humidity;BMP_temperature;BMP_pressure;BME280_temperature;BME280_humidity;BME280_pressure;Samples;Min_cycle;Max_cycle;Signal;HPM_P1;HPM_P2
2021/07/01 00:00:22;;;;;;;;;;;25.70;95.00;;;;;;5126274;28;19911;-47
2021/07/01 00:02:48;;;;;;;;;;;25.70;95.10;;;;;;5125988;28;19904;-47
2021/07/01 00:05:15;;;;;;;;;;;25.80;95.20;;;;;;5126213;28;19911;-50
2021/07/01 00:07:42;;;;;;;;;;;25.80;95.20;;;;;;5125576;28;20188;-45
2021/07/01 00:10:13;;;;;;;;;;;25.70;95.20;;;;;;5126167;28;19918;-45
2021/07/01 00:12:40;;;;;;;;;;;25.80;95.20;;;;;;5125738;28;19931;-47
2021/07/01 00:15:08;;;;;;;;;;;25.80;95.20;;;;;;5125978;28;19919;-46
2021/07/01 00:17:34;;;;;;;;;;;25.70;95.10;;;;;;5125701;28;19919;-51
2021/07/01 00:20:01;;;;;;;;;;;25.80;95.20;;;;;;5126041;28;19912;-46
2021/07/01 00:22:27;;;;;;;;;;;25.70;95.10;;;;;;5125442;28;20192;-53
2021/07/01 00:24:53;;;;;;;;;;;25.70;95.10;;;;;;5125961;28;19911;-48
2021/07/01 00:27:19;;;;;;;;;;;25.70;95.00;;;;;;5125516;28;19908;-46
2021/07/01 00:29:45;;;;;;;;;;;25.70;95.00;;;;;;5125616;28;19912;-51
2021/07/01 00:32:12;;;;;;;;;;;25.70;95.00;;;;;;5125443;28;19903;-49
2021/07/01 00:34:38;;;;;;;;;;;25.70;95.10;;;;;;5124994;28;19919;-47
2021/07/01 00:37:04;;;;;;;;;;;25.70;95.10;;;;;;5124739;28;19910;-51
2021/07/01 00:39:31;;;;;;;;;;;25.70;95.20;;;;;;5106738;28;19916;-47
2021/07/01 00:41:57;;;;;;;;;;;25.60;95.10;;;;;;5124709;28;19975;-50
2021/07/01 00:44:23;;;;;;;;;;;25.50;95.00;;;;;;5123902;28;19919;-49
2021/07/01 00:46:49;;;;;;;;;;;25.50;94.90;;;;;;5125156;28;19918;-55
2021/07/01 00:49:18;;;;;;;;;;;25.50;94.80;;;;;;5125137;28;19928;-48
2021/07/01 00:51:44;;;;;;;;;;;25.50;94.70;;;;;;5124495;28;20208;-48
2021/07/01 00:54:10;;;;;;;;;;;25.50;94.80;;;;;;5122976;28;19947;-54
2021/07/01 00:56:39;;;;;;;;;;;25.50;94.80;;;;;;5123611;28;19903;-48
2021/07/01 00:59:08;;;;;;;;;;;25.40;94.80;;;;;;5123313;28;19912;-51
2021/07/01 01:01:35;;;;;;;;;;;25.50;94.90;;;;;;5123499;28;19911;-47
2021/07/01 01:04:02;;;;;;;;;;;25.50;94.80;;;;;;5123188;28;19912;-50
2021/07/01 01:06:29;;;;;;;;;;;25.40;94.80;;;;;;5122897;28;19908;-50
2021/07/01 01:08:56;;;;;;;;;;;25.40;94.70;;;;;;5124724;28;20059;-45
2021/07/01 01:11:24;;;;;;;;;;;25.40;94.70;;;;;;5106851;28;19908;-50
2021/07/01 01:13:51;;;;;;;;;;;25.40;94.60;;;;;;5124516;28;20138;-51
2021/07/01 01:16:18;;;;;;;;;;;25.40;94.40;;;;;;5089891;28;19926;-47
2021/07/01 01:18:44;;;;;;;;;;;25.40;94.30;;;;;;5124861;28;19903;-44
2021/07/01 01:21:11;;;;;;;;;;;25.30;94.30;;;;;;5124774;28;19980;-50
2021/07/01 01:23:37;;;;;;;;;;;25.30;94.20;;;;;;5124278;28;19919;-49
2021/07/01 01:26:04;;;;;;;;;;;25.30;94.10;;;;;;5124590;28;19904;-45
2021/07/01 01:28:30;;;;;;;;;;;25.30;94.30;;;;;;5124461;28;20100;-45
2021/07/01 01:30:57;;;;;;;;;;;25.30;94.30;;;;;;5124925;28;19911;-46
2021/07/01 01:33:23;;;;;;;;;;;25.30;94.30;;;;;;5124869;28;20061;-51
2021/07/01 01:35:50;;;;;;;;;;;25.30;94.30;;;;;;5106445;28;19919;-45
2021/07/01 01:38:17;;;;;;;;;;;25.30;94.30;;;;;;5124254;28;20150;-49
2021/07/01 01:40:47;;;;;;;;;;;25.20;94.20;;;;;;5124398;28;19965;-46
2021/07/01 01:43:22;;;;;;;;;;;25.20;94.20;;;;;;5124364;28;19907;-48
2021/07/01 01:45:49;;;;;;;;;;;25.30;94.20;;;;;;5125662;28;19908;-50
2021/07/01 01:48:15;;;;;;;;;;;25.20;94.40;;;;;;5110526;28;19914;-46
2021/07/01 01:50:42;;;;;;;;;;;25.30;94.50;;;;;;5128879;28;19907;-51
2021/07/01 01:53:09;;;;;;;;;;;25.30;94.70;;;;;;5128200;28;19916;-53
2021/07/01 01:55:36;;;;;;;;;;;25.20;94.80;;;;;;5128353;28;20104;-49
2021/07/01 01:58:03;;;;;;;;;;;25.30;94.80;;;;;;5128210;28;19907;-54
2021/07/01 02:00:30;;;;;;;;;;;25.20;94.70;;;;;;5110366;28;19908;-46
2021/07/01 02:02:57;;;;;;;;;;;25.20;94.80;;;;;;5128476;28;19912;-48
2021/07/01 02:05:23;;;;;;;;;;;25.20;94.80;;;;;;5093298;28;19908;-51
2021/07/01 02:07:49;;;;;;;;;;;25.30;94.90;;;;;;5128112;28;19919;-49
2021/07/01 02:10:21;;;;;;;;;;;25.20;94.90;;;;;;5127326;28;19907;-51
2021/07/01 02:12:48;;;;;;;;;;;25.20;94.90;;;;;;5126748;28;20215;-46
2021/07/01 02:15:15;;;;;;;;;;;25.20;95.00;;;;;;5128513;28;19908;-47
2021/07/01 02:17:42;;;;;;;;;;;25.20;95.10;;;;;;5128237;28;19907;-48
2021/07/01 02:20:12;;;;;;;;;;;25.20;95.10;;;;;;5128277;28;19983;-51
2021/07/01 02:22:39;;;;;;;;;;;25.20;95.00;;;;;;5109775;28;19946;-48
2021/07/01 02:25:06;;;;;;;;;;;25.20;94.90;;;;;;5128187;28;19995;-47
2021/07/01 02:27:33;;;;;;;;;;;25.20;95.00;;;;;;5127662;28;19912;-53
2021/07/01 02:30:00;;;;;;;;;;;25.20;94.90;;;;;;5128216;28;19939;-55
2021/07/01 02:32:26;;;;;;;;;;;25.20;94.90;;;;;;5127894;28;19974;-47
2021/07/01 02:34:53;;;;;;;;;;;25.20;94.60;;;;;;5127978;28;19915;-45
2021/07/01 02:37:19;;;;;;;;;;;25.20;95.00;;;;;;5127653;28;19918;-47
2021/07/01 02:39:46;;;;;;;;;;;25.20;94.90;;;;;;5127535;28;19919;-48
2021/07/01 02:42:12;;;;;;;;;;;25.20;95.00;;;;;;5127593;28;19904;-52
2021/07/01 02:44:39;;;;;;;;;;;25.20;95.10;;;;;;5109561;28;19919;-48
2021/07/01 02:47:05;;;;;;;;;;;25.20;95.00;;;;;;5127507;28;19953;-48
2021/07/01 02:49:31;;;;;;;;;;;25.20;95.00;;;;;;5127547;28;19912;-47
2021/07/01 02:51:57;;;;;;;;;;;25.20;95.20;;;;;;5127250;28;19940;-54
2021/07/01 02:54:24;;;;;;;;;;;25.20;95.20;;;;;;5127523;28;19961;-51
2021/07/01 02:56:50;;;;;;;;;;;25.20;95.00;;;;;;5126727;28;19904;-46
2021/07/01 02:59:18;;;;;;;;;;;25.20;95.00;;;;;;5127295;28;20232;-46
2021/07/01 03:01:45;;;;;;;;;;;25.10;94.90;;;;;;5127148;28;19904;-46
2021/07/01 03:04:12;;;;;;;;;;;25.20;94.90;;;;;;5127122;28;19991;-48
2021/07/01 03:06:38;;;;;;;;;;;25.20;94.90;;;;;;5126775;28;19907;-49
2021/07/01 03:09:05;;;;;;;;;;;25.20;94.80;;;;;;5108909;28;19911;-48
2021/07/01 03:11:31;;;;;;;;;;;25.10;94.80;;;;;;5127004;28;20012;-43
2021/07/01 03:13:57;;;;;;;;;;;25.20;94.80;;;;;;5126992;28;19939;-46
2021/07/01 03:16:24;;;;;;;;;;;25.10;94.70;;;;;;5126961;28;19904;-49
2021/07/01 03:18:51;;;;;;;;;;;25.10;94.60;;;;;;5123847;27;20088;-47
2021/07/01 03:21:17;;;;;;;;;;;25.10;94.70;;;;;;5126754;28;20165;-46
2021/07/01 03:23:45;;;;;;;;;;;25.10;94.80;;;;;;5145799;27;19910;-53
2021/07/01 03:26:11;;;;;;;;;;;25.20;94.80;;;;;;5138552;27;19974;-46
2021/07/01 03:28:38;;;;;;;;;;;25.20;94.80;;;;;;5126367;28;19903;-51
2021/07/01 03:31:04;;;;;;;;;;;25.10;94.70;;;;;;5126901;28;20210;-46
2021/07/01 03:33:31;;;;;;;;;;;25.20;94.80;;;;;;5145175;27;19903;-46
2021/07/01 03:35:57;;;;;;;;;;;25.20;94.70;;;;;;5147295;27;19904;-53
2021/07/01 03:38:24;;;;;;;;;;;25.10;94.60;;;;;;5135926;27;19939;-47
2021/07/01 03:40:50;;;;;;;;;;;25.10;94.70;;;;;;5126032;28;20227;-47
2021/07/01 03:43:17;;;;;;;;;;;25.10;94.70;;;;;;5126299;28;19904;-45
2021/07/01 03:45:43;;;;;;;;;;;25.10;94.70;;;;;;5126990;28;19918;-45
2021/07/01 03:48:10;;;;;;;;;;;25.10;95.00;;;;;;5129603;27;19971;-51
2021/07/01 03:50:36;;;;;;;;;;;25.10;94.70;;;;;;5126502;28;20199;-50
2021/07/01 03:53:02;;;;;;;;;;;25.10;94.70;;;;;;5125066;27;19989;-51
2021/07/01 03:55:29;;;;;;;;;;;25.10;94.70;;;;;;5126709;28;19918;-62
2021/07/01 03:57:55;;;;;;;;;;;25.20;94.70;;;;;;5128964;27;19915;-54
2021/07/01 04:00:21;;;;;;;;;;;25.10;94.70;;;;;;5147049;27;20191;-59
2021/07/01 04:02:48;;;;;;;;;;;25.20;94.70;;;;;;5128179;27;19904;-52
2021/07/01 04:05:14;;;;;;;;;;;25.20;94.70;;;;;;5146903;27;19915;-61
2021/07/01 04:07:40;;;;;;;;;;;25.20;94.70;;;;;;5126583;27;19945;-48
2021/07/01 04:10:09;;;;;;;;;;;25.20;94.70;;;;;;5125202;28;19912;-57
2021/07/01 04:12:35;;;;;;;;;;;25.10;94.70;;;;;;5107805;28;20038;-48
2021/07/01 04:15:02;;;;;;;;;;;25.10;94.80;;;;;;5126106;28;19916;-48
2021/07/01 04:17:28;;;;;;;;;;;25.10;94.90;;;;;;5126335;28;20174;-51
2021/07/01 04:19:54;;;;;;;;;;;25.10;94.90;;;;;;5126591;28;19974;-58
2021/07/01 04:22:24;;;;;;;;;;;25.10;94.90;;;;;;5126074;28;19913;-48
2021/07/01 04:24:50;;;;;;;;;;;25.10;95.00;;;;;;5126177;28;19964;-49
2021/07/01 04:27:17;;;;;;;;;;;25.10;94.90;;;;;;5125888;28;19907;-51
2021/07/01 04:29:43;;;;;;;;;;;25.10;94.90;;;;;;5126070;28;19912;-50
2021/07/01 04:32:09;;;;;;;;;;;25.10;94.90;;;;;;5126084;28;19983;-48
2021/07/01 04:34:35;;;;;;;;;;;25.00;94.90;;;;;;5125531;28;19933;-49
2021/07/01 04:37:03;;;;;;;;;;;25.10;95.00;;;;;;5125375;28;19939;-52
2021/07/01 04:39:29;;;;;;;;;;;25.00;95.00;;;;;;5125728;28;19920;-53
2021/07/01 04:41:55;;;;;;;;;;;25.10;95.00;;;;;;5125886;28;20189;-49
2021/07/01 04:44:22;;;;;;;;;;;25.10;95.00;;;;;;5125686;28;19919;-53
2021/07/01 04:46:48;;;;;;;;;;;25.00;94.90;;;;;;5125444;28;19915;-49
2021/07/01 04:49:14;;;;;;;;;;;25.00;95.00;;;;;;5125624;28;20135;-52
2021/07/01 04:51:41;;;;;;;;;;;25.00;95.20;;;;;;5125913;28;19904;-52
2021/07/01 04:54:07;;;;;;;;;;;25.00;95.00;;;;;;5126635;28;19920;-52
2021/07/01 04:56:46;;;;;;;;;;;25.00;95.00;;;;;;5125278;28;19908;-54
2021/07/01 04:59:13;;;;;;;;;;;25.00;95.10;;;;;;5125506;28;19919;-51
2021/07/01 05:01:40;;;;;;;;;;;25.00;95.10;;;;;;5125457;28;20095;-48
2021/07/01 05:04:06;;;;;;;;;;;25.00;95.10;;;;;;5125627;28;20237;-47
2021/07/01 05:06:33;;;;;;;;;;;25.00;95.10;;;;;;5124828;28;19912;-52
2021/07/01 05:08:59;;;;;;;;;;;25.00;95.10;;;;;;5125563;28;19912;-57
2021/07/01 05:11:25;;;;;;;;;;;25.00;95.20;;;;;;5125425;28;19911;-49
2021/07/01 05:13:51;;;;;;;;;;;25.00;95.00;;;;;;5125198;28;19957;-52
2021/07/01 05:16:17;;;;;;;;;;;25.00;95.00;;;;;;5125355;28;19904;-48
2021/07/01 05:18:44;;;;;;;;;;;25.00;95.10;;;;;;5125313;28;20110;-50
2021/07/01 05:21:10;;;;;;;;;;;25.00;95.10;;;;;;5130335;28;19935;-53
2021/07/01 05:23:36;;;;;;;;;;;25.00;95.20;;;;;;5132053;28;19911;-50
2021/07/01 05:26:02;;;;;;;;;;;25.00;95.10;;;;;;5132120;28;19903;-50
2021/07/01 05:28:28;;;;;;;;;;;25.00;95.20;;;;;;5132048;28;19910;-54
2021/07/01 05:30:55;;;;;;;;;;;24.90;95.20;;;;;;5131947;28;19904;-49
2021/07/01 05:33:21;;;;;;;;;;;24.90;95.20;;;;;;5113734;28;20107;-48
2021/07/01 05:35:47;;;;;;;;;;;25.00;95.30;;;;;;5132370;28;19911;-49
2021/07/01 05:38:13;;;;;;;;;;;25.00;95.30;;;;;;5131833;28;19904;-47
2021/07/01 05:40:39;;;;;;;;;;;25.00;95.40;;;;;;5131828;28;19947;-50
2021/07/01 05:43:07;;;;;;;;;;;24.90;95.30;;;;;;5131948;28;19941;-50
2021/07/01 05:45:34;;;;;;;;;;;25.00;95.40;;;;;;5132273;28;19911;-51
2021/07/01 05:48:00;;;;;;;;;;;25.00;95.40;;;;;;5131995;28;20157;-50
2021/07/01 05:50:27;;;;;;;;;;;25.00;95.20;;;;;;5132217;28;19943;-49
2021/07/01 05:53:04;;;;;;;;;;;25.00;95.20;;;;;;5131756;28;19904;-50
2021/07/01 05:55:31;;;;;;;;;;;25.00;95.20;;;;;;5132319;28;19912;-59
2021/07/01 05:57:57;;;;;;;;;;;25.00;95.20;;;;;;5131647;28;19911;-50
2021/07/01 06:00:24;;;;;;;;;;;24.90;95.20;;;;;;5132159;28;20299;-57
2021/07/01 06:02:51;;;;;;;;;;;24.90;95.10;;;;;;5131737;28;20176;-47
2021/07/01 06:05:17;;;;;;;;;;;24.90;95.10;;;;;;5113617;28;20222;-47
2021/07/01 06:07:47;;;;;;;;;;;24.90;95.10;;;;;;5131482;28;19947;-51
2021/07/01 06:10:16;;;;;;;;;;;24.90;95.10;;;;;;5132136;28;19947;-50
2021/07/01 06:12:42;;;;;;;;;;;24.90;95.10;;;;;;5131487;28;19977;-54
2021/07/01 06:15:09;;;;;;;;;;;24.90;95.20;;;;;;5132086;28;19924;-53
2021/07/01 06:17:35;;;;;;;;;;;24.90;95.20;;;;;;5131668;28;19949;-49
2021/07/01 06:20:02;;;;;;;;;;;24.90;95.20;;;;;;5131940;28;19969;-48
2021/07/01 06:22:29;;;;;;;;;;;24.90;95.30;;;;;;5131496;28;19912;-54
2021/07/01 06:24:56;;;;;;;;;;;24.90;95.30;;;;;;5131968;28;19912;-51
2021/07/01 06:27:37;;;;;;;;;;;24.90;95.30;;;;;;5131348;28;19907;-51
2021/07/01 06:30:08;;;;;;;;;;;24.90;95.30;;;;;;5131765;28;19918;-49
2021/07/01 06:32:41;;;;;;;;;;;24.90;95.30;;;;;;5128358;28;20060;-52
2021/07/01 06:35:08;;;;;;;;;;;24.90;95.30;;;;;;5128550;28;19920;-52
2021/07/01 06:37:37;;;;;;;;;;;24.90;95.40;;;;;;5128199;28;19911;-51
2021/07/01 06:40:05;;;;;;;;;;;24.90;95.30;;;;;;5127980;28;20099;-53
2021/07/01 06:42:32;;;;;;;;;;;24.90;95.30;;;;;;5128005;28;19912;-52
2021/07/01 06:45:01;;;;;;;;;;;24.90;95.40;;;;;;5128506;28;19956;-50
2021/07/01 06:47:28;;;;;;;;;;;24.90;95.40;;;;;;5127914;28;20138;-50
2021/07/01 06:49:55;;;;;;;;;;;24.90;95.40;;;;;;5128336;28;19912;-49
2021/07/01 06:52:22;;;;;;;;;;;24.90;95.40;;;;;;5127950;28;19942;-51
2021/07/01 06:54:48;;;;;;;;;;;24.90;95.40;;;;;;5128094;28;19918;-50
2021/07/01 06:57:14;;;;;;;;;;;24.90;95.30;;;;;;5128002;28;19927;-52
2021/07/01 06:59:41;;;;;;;;;;;24.90;95.30;;;;;;5128049;28;19911;-49
2021/07/01 07:02:08;;;;;;;;;;;24.90;95.30;;;;;;5127742;28;19904;-47
2021/07/01 07:04:35;;;;;;;;;;;24.90;95.30;;;;;;5127793;28;19918;-48
2021/07/01 07:07:03;;;;;;;;;;;24.80;95.30;;;;;;5127679;28;19915;-49
2021/07/01 07:09:29;;;;;;;;;;;24.80;95.30;;;;;;5127854;28;19950;-51
2021/07/01 07:11:55;;;;;;;;;;;24.90;95.30;;;;;;5127420;28;19939;-50
2021/07/01 07:14:22;;;;;;;;;;;24.80;95.30;;;;;;5127680;28;20191;-52
2021/07/01 07:16:49;;;;;;;;;;;24.80;95.30;;;;;;5127513;28;19904;-47
2021/07/01 07:19:15;;;;;;;;;;;24.80;95.30;;;;;;5127420;28;20168;-50
2021/07/01 07:21:45;;;;;;;;;;;24.80;95.30;;;;;;5127409;28;19904;-47
2021/07/01 07:24:14;;;;;;;;;;;24.80;95.20;;;;;;5127474;28;20096;-48
2021/07/01 07:26:41;;;;;;;;;;;24.80;95.30;;;;;;5127162;28;19954;-50
2021/07/01 07:29:09;;;;;;;;;;;24.80;95.30;;;;;;5127331;28;20173;-48
2021/07/01 07:34:38;;;;;;;;;;;24.80;95.30;;;;;;5127373;28;19918;-52
2021/07/01 07:37:05;;;;;;;;;;;24.80;95.30;;;;;;5126929;28;19910;-54
2021/07/01 07:39:32;;;;;;;;;;;24.80;95.40;;;;;;5126872;28;19920;-48
2021/07/01 07:41:59;;;;;;;;;;;24.80;95.40;;;;;;5126888;28;19910;-47
2021/07/01 07:44:25;;;;;;;;;;;24.80;95.40;;;;;;5125776;28;19919;-51
2021/07/01 07:46:51;;;;;;;;;;;24.80;95.30;;;;;;5126847;28;19975;-50
2021/07/01 07:49:19;;;;;;;;;;;24.80;95.30;;;;;;5127031;28;19950;-52
2021/07/01 07:51:48;;;;;;;;;;;24.80;95.40;;;;;;5126504;28;19976;-48
2021/07/01 07:54:15;;;;;;;;;;;24.80;95.40;;;;;;5126830;28;19916;-45
2021/07/01 07:56:42;;;;;;;;;;;24.80;95.40;;;;;;5126627;28;20012;-49
2021/07/01 07:59:11;;;;;;;;;;;24.70;95.40;;;;;;5126550;28;19982;-49
2021/07/01 08:01:39;;;;;;;;;;;24.80;95.40;;;;;;5126572;28;20192;-48
2021/07/01 08:04:06;;;;;;;;;;;24.70;95.40;;;;;;5126663;28;19912;-52
2021/07/01 08:06:32;;;;;;;;;;;24.70;95.40;;;;;;5126259;28;19952;-48
2021/07/01 08:09:00;;;;;;;;;;;24.70;95.40;;;;;;5126508;28;19916;-47
2021/07/01 08:11:27;;;;;;;;;;;24.70;95.40;;;;;;5126325;28;19908;-46
2021/07/01 08:13:59;;;;;;;;;;;24.80;95.40;;;;;;5126172;28;19990;-53
2021/07/01 08:16:25;;;;;;;;;;;24.70;95.40;;;;;;5126311;28;19904;-48
2021/07/01 08:18:52;;;;;;;;;;;24.70;95.30;;;;;;5126270;28;19912;-50
2021/07/01 08:21:18;;;;;;;;;;;24.70;95.40;;;;;;5126070;28;19970;-49
2021/07/01 08:23:45;;;;;;;;;;;24.70;95.30;;;;;;5126194;28;19991;-53
2021/07/01 08:26:12;;;;;;;;;;;24.70;95.40;;;;;;5126094;28;19904;-49
2021/07/01 08:28:38;;;;;;;;;;;24.70;95.30;;;;;;5125969;28;19904;-50
2021/07/01 08:31:07;;;;;;;;;;;24.70;95.40;;;;;;5126100;28;19904;-49
2021/07/01 08:33:38;;;;;;;;;;;24.70;95.30;;;;;;5125981;28;19908;-54
2021/07/01 08:36:05;;;;;;;;;;;24.70;95.30;;;;;;5125814;28;19927;-52
2021/07/01 08:38:38;;;;;;;;;;;24.70;95.30;;;;;;5125869;28;19939;-51
2021/07/01 08:41:34;;;;;;;;;;;24.70;95.30;;;;;;5125626;28;19916;-50
2021/07/01 08:44:06;;;;;;;;;;;24.70;95.30;;;;;;5104338;28;20234;-47
2021/07/01 08:46:35;;;;;;;;;;;24.70;95.20;;;;;;5125543;28;19930;-48
2021/07/01 08:49:11;;;;;;;;;;;24.70;95.20;;;;;;5125964;28;19918;-48
2021/07/01 08:51:48;;;;;;;;;;;24.70;95.20;;;;;;5125688;28;19907;-53
2021/07/01 08:54:35;;;;;;;;;;;24.70;95.20;;;;;;5125597;28;19912;-49
2021/07/01 08:57:05;;;;;;;;;;;24.70;95.10;;;;;;5125326;28;19903;-52
2021/07/01 08:59:41;;;;;;;;;;;24.60;95.00;;;;;;5125501;28;20204;-49
2021/07/01 09:02:08;;;;;;;;;;;24.60;95.00;;;;;;5125309;28;19911;-53
2021/07/01 09:04:42;;;;;;;;;;;24.60;95.10;;;;;;5125170;28;19911;-50
2021/07/01 09:07:13;;;;;;;;;;;24.60;95.00;;;;;;5106810;28;20255;-53
2021/07/01 09:09:40;;;;;;;;;;;24.60;95.00;;;;;;5125167;28;19957;-54
2021/07/01 09:12:07;;;;;;;;;;;24.60;95.00;;;;;;5125021;28;19911;-58
2021/07/01 09:14:36;;;;;;;;;;;24.60;95.00;;;;;;5125161;28;19950;-55
2021/07/01 09:17:11;;;;;;;;;;;24.60;95.00;;;;;;5124838;28;19911;-48
2021/07/01 09:19:40;;;;;;;;;;;24.60;95.00;;;;;;5125089;28;19919;-52
2021/07/01 09:22:11;;;;;;;;;;;24.60;95.00;;;;;;5124857;28;19910;-51
2021/07/01 09:24:38;;;;;;;;;;;24.60;95.00;;;;;;5125058;28;19919;-56
2021/07/01 09:27:09;;;;;;;;;;;24.60;95.00;;;;;;5124753;28;19908;-52
2021/07/01 09:29:37;;;;;;;;;;;24.60;95.00;;;;;;5124866;28;20096;-53
2021/07/01 09:32:03;;;;;;;;;;;24.60;95.00;;;;;;5124847;28;19978;-55
2021/07/01 09:34:33;;;;;;;;;;;24.60;94.90;;;;;;5124703;28;19918;-54
2021/07/01 09:37:01;;;;;;;;;;;24.50;94.90;;;;;;5124462;28;20189;-56
2021/07/01 09:39:28;;;;;;;;;;;24.50;95.00;;;;;;5124655;28;19920;-50
2021/07/01 09:42:02;;;;;;;;;;;24.50;95.00;;;;;;5124636;28;19945;-55
2021/07/01 09:44:29;;;;;;;;;;;24.50;94.90;;;;;;5124688;28;20234;-56
2021/07/01 09:47:00;;;;;;;;;;;24.50;94.90;;;;;;5124392;28;20211;-52
2021/07/01 09:49:33;;;;;;;;;;;24.50;94.80;;;;;;5124834;28;19912;-52
2021/07/01 09:52:02;;;;;;;;;;;24.50;94.80;;;;;;5124551;28;20267;-60
2021/07/01 09:54:28;;;;;;;;;;;24.50;94.80;;;;;;5124738;28;19953;-55
2021/07/01 09:56:56;;;;;;;;;;;24.40;94.80;;;;;;5124407;28;19911;-53
2021/07/01 09:59:30;;;;;;;;;;;24.40;94.80;;;;;;5124623;28;19912;-53
2021/07/01 10:02:13;;;;;;;;;;;24.40;94.70;;;;;;5124523;28;20247;-55
2021/07/01 10:04:44;;;;;;;;;;;24.40;94.70;;;;;;5124584;28;19912;-51
2021/07/01 10:07:11;;;;;;;;;;;24.40;94.80;;;;;;5125477;28;19915;-54
2021/07/01 10:09:37;;;;;;;;;;;24.40;94.80;;;;;;5128417;28;20005;-54
2021/07/01 10:12:13;;;;;;;;;;;24.40;94.80;;;;;;5128294;28;20246;-53
2021/07/01 10:14:39;;;;;;;;;;;24.40;94.80;;;;;;5128404;28;20129;-50
2021/07/01 10:17:13;;;;;;;;;;;24.40;94.80;;;;;;5128061;28;20189;-50
2021/07/01 10:19:39;;;;;;;;;;;24.40;94.90;;;;;;5128486;28;19912;-59
2021/07/01 10:22:07;;;;;;;;;;;24.40;94.90;;;;;;5128150;28;19938;-52
2021/07/01 10:24:39;;;;;;;;;;;24.40;95.00;;;;;;5128152;28;19972;-55
2021/07/01 10:27:05;;;;;;;;;;;24.40;95.10;;;;;;5127875;28;19911;-52
2021/07/01 10:29:36;;;;;;;;;;;24.40;95.00;;;;;;5127977;28;19919;-52
2021/07/01 10:32:06;;;;;;;;;;;24.40;95.10;;;;;;5127872;28;19930;-55
2021/07/01 10:34:45;;;;;;;;;;;24.40;95.10;;;;;;5128014;28;19953;-54
2021/07/01 10:37:24;;;;;;;;;;;24.40;95.10;;;;;;5127496;28;20184;-51
2021/07/01 10:39:53;;;;;;;;;;;24.40;95.20;;;;;;5127516;28;20019;-55
2021/07/01 10:42:20;;;;;;;;;;;24.40;95.10;;;;;;5127818;28;19910;-49
2021/07/01 10:44:46;;;;;;;;;;;24.40;95.10;;;;;;5127859;28;19912;-50
2021/07/01 10:47:42;;;;;;;;;;;24.40;95.10;;;;;;5127505;28;19908;-52
2021/07/01 10:50:24;;;;;;;;;;;24.40;95.20;;;;;;5106361;28;19911;-50
2021/07/01 10:52:50;;;;;;;;;;;24.40;95.20;;;;;;5127385;28;20193;-48
2021/07/01 10:55:16;;;;;;;;;;;24.40;95.20;;;;;;5127840;28;20185;-49
2021/07/01 10:57:53;;;;;;;;;;;24.40;95.20;;;;;;5127379;28;19903;-53
2021/07/01 11:00:36;;;;;;;;;;;24.40;95.30;;;;;;5127516;28;19912;-54
2021/07/01 11:03:03;;;;;;;;;;;24.40;95.30;;;;;;5127399;28;19927;-49
2021/07/01 11:05:36;;;;;;;;;;;24.40;95.60;;;;;;5127493;28;19957;-53
2021/07/01 11:08:02;;;;;;;;;;;24.40;95.50;;;;;;5127086;28;19907;-49
2021/07/01 11:10:36;;;;;;;;;;;24.40;95.40;;;;;;5127611;28;20069;-49
2021/07/01 11:13:09;;;;;;;;;;;24.40;95.40;;;;;;5126959;28;19911;-49
2021/07/01 11:15:58;;;;;;;;;;;24.40;95.40;;;;;;5127306;28;19911;-50
2021/07/01 11:18:35;;;;;;;;;;;24.40;95.40;;;;;;5113135;28;19945;-51
2021/07/01 11:21:09;;;;;;;;;;;24.40;95.40;;;;;;5126622;28;20227;-55
2021/07/01 11:23:35;;;;;;;;;;;24.40;95.40;;;;;;5123232;27;19910;-54
2021/07/01 11:26:01;;;;;;;;;;;24.40;95.40;;;;;;5126701;28;19945;-48
2021/07/01 11:28:30;;;;;;;;;;;24.50;95.40;;;;;;5133165;27;19933;-51
2021/07/01 11:31:00;;;;;;;;;;;24.50;95.50;;;;;;5128820;27;19903;-53
2021/07/01 11:33:26;;;;;;;;;;;24.50;95.50;;;;;;5147109;27;19904;-57
2021/07/01 11:36:13;;;;;;;;;;;24.50;95.50;;;;;;5147193;27;19935;-50
2021/07/01 11:38:39;;;;;;;;;;;24.50;95.60;;;;;;5147078;27;19903;-48
2021/07/01 11:41:06;;;;;;;;;;;24.50;95.60;;;;;;5146697;27;19916;-51
2021/07/01 11:43:33;;;;;;;;;;;24.50;95.60;;;;;;5147044;27;19915;-49
2021/07/01 11:46:00;;;;;;;;;;;24.50;95.60;;;;;;5147004;27;19907;-51
2021/07/01 11:48:27;;;;;;;;;;;24.50;95.70;;;;;;5146889;27;20166;-47
2021/07/01 11:50:55;;;;;;;;;;;24.50;95.60;;;;;;5147441;27;19957;-50
2021/07/01 11:53:22;;;;;;;;;;;24.50;95.60;;;;;;5146845;27;19903;-51
2021/07/01 11:55:49;;;;;;;;;;;24.60;95.70;;;;;;5147278;27;20184;-52
2021/07/01 11:58:16;;;;;;;;;;;24.60;95.70;;;;;;5146605;27;20256;-54
2021/07/01 12:00:42;;;;;;;;;;;24.60;95.70;;;;;;5147209;27;19939;-48
2021/07/01 12:03:09;;;;;;;;;;;24.60;95.70;;;;;;5146767;27;19949;-50
2021/07/01 12:05:39;;;;;;;;;;;24.60;95.70;;;;;;5146904;27;19975;-50
2021/07/01 12:08:07;;;;;;;;;;;24.60;95.70;;;;;;5146502;27;20223;-54
2021/07/01 12:10:33;;;;;;;;;;;24.60;95.70;;;;;;5146983;27;19983;-50
2021/07/01 12:12:59;;;;;;;;;;;24.60;95.80;;;;;;5146399;27;20329;-51
2021/07/01 12:15:27;;;;;;;;;;;24.60;95.70;;;;;;5146937;27;19914;-48
2021/07/01 12:17:54;;;;;;;;;;;24.70;95.80;;;;;;5146424;27;19907;-50
2021/07/01 12:20:27;;;;;;;;;;;24.70;95.70;;;;;;5146697;27;19908;-49
2021/07/01 12:22:54;;;;;;;;;;;24.70;95.70;;;;;;5146430;27;19974;-49
2021/07/01 12:25:26;;;;;;;;;;;24.70;95.70;;;;;;5146633;27;19982;-56
2021/07/01 12:28:24;;;;;;;;;;;24.80;95.60;;;;;;5146144;27;19915;-51
2021/07/01 12:30:53;;;;;;;;;;;24.80;95.60;;;;;;5125118;27;19911;-53
2021/07/01 12:33:37;;;;;;;;;;;24.80;95.70;;;;;;5146044;27;19904;-53
2021/07/01 12:36:07;;;;;;;;;;;24.80;95.40;;;;;;5145864;27;20204;-53
2021/07/01 12:38:33;;;;;;;;;;;24.80;95.30;;;;;;5146132;27;20100;-52
2021/07/01 12:41:03;;;;;;;;;;;24.80;95.30;;;;;;5145753;27;19979;-52
2021/07/01 12:43:47;;;;;;;;;;;24.80;95.40;;;;;;5145823;27;19971;-57
2021/07/01 12:46:31;;;;;;;;;;;24.90;95.40;;;;;;5145918;27;19966;-54
2021/07/01 12:49:03;;;;;;;;;;;25.00;95.20;;;;;;5146033;27;19911;-55
2021/07/01 12:51:42;;;;;;;;;;;25.10;94.70;;;;;;5145830;27;20077;-52
2021/07/01 12:54:31;;;;;;;;;;;25.10;95.10;;;;;;5146098;27;19911;-57
2021/07/01 12:56:57;;;;;;;;;;;25.10;94.60;;;;;;5132206;27;19927;-53
2021/07/01 12:59:24;;;;;;;;;;;25.10;94.90;;;;;;5145782;27;19919;-51
2021/07/01 13:01:51;;;;;;;;;;;25.10;94.60;;;;;;5145612;27;20245;-47
2021/07/01 13:04:24;;;;;;;;;;;25.30;94.50;;;;;;5127194;27;20203;-50
2021/07/01 13:06:51;;;;;;;;;;;25.40;94.30;;;;;;5145595;27;19907;-47
2021/07/01 13:09:29;;;;;;;;;;;25.50;93.80;;;;;;5145833;27;19943;-54
2021/07/01 13:11:55;;;;;;;;;;;25.60;93.70;;;;;;5125252;27;20328;-57
2021/07/01 13:14:25;;;;;;;;;;;25.70;93.30;;;;;;5124984;28;20100;-50
2021/07/01 13:17:00;;;;;;;;;;;25.70;92.20;;;;;;5124784;28;19904;-50
2021/07/01 13:19:27;;;;;;;;;;;25.70;92.10;;;;;;5125273;28;20134;-49
2021/07/01 13:21:55;;;;;;;;;;;25.80;92.50;;;;;;5124685;28;19904;-53
2021/07/01 13:24:25;;;;;;;;;;;25.80;92.90;;;;;;5124759;28;20192;-49
2021/07/01 13:26:57;;;;;;;;;;;25.70;92.80;;;;;;5124574;28;20093;-48
2021/07/01 13:29:36;;;;;;;;;;;25.70;93.10;;;;;;5124977;28;19988;-47
2021/07/01 13:32:06;;;;;;;;;;;25.70;93.10;;;;;;5124910;28;19911;-50
2021/07/01 13:34:32;;;;;;;;;;;25.70;93.30;;;;;;5125064;28;19957;-57
2021/07/01 13:37:19;;;;;;;;;;;25.70;94.00;;;;;;5124530;28;20192;-52
2021/07/01 13:39:46;;;;;;;;;;;25.70;94.30;;;;;;5124503;28;19961;-54
2021/07/01 13:42:41;;;;;;;;;;;25.70;94.80;;;;;;5127674;28;19911;-51
2021/07/01 13:45:08;;;;;;;;;;;25.70;94.80;;;;;;5111754;28;19912;-49
2021/07/01 13:47:43;;;;;;;;;;;25.70;95.10;;;;;;5128567;28;19915;-48
2021/07/01 13:50:26;;;;;;;;;;;25.60;94.90;;;;;;5129051;28;20085;-48
2021/07/01 13:52:53;;;;;;;;;;;25.60;94.90;;;;;;5128440;28;19904;-48
2021/07/01 13:55:40;;;;;;;;;;;25.60;94.10;;;;;;5129107;28;19912;-50
2021/07/01 13:58:06;;;;;;;;;;;25.60;94.10;;;;;;5099809;28;19911;-47
2021/07/01 14:00:42;;;;;;;;;;;25.60;94.00;;;;;;5128931;28;19937;-53
2021/07/01 14:03:10;;;;;;;;;;;25.60;94.00;;;;;;5128419;28;20160;-49
2021/07/01 14:05:37;;;;;;;;;;;25.60;94.00;;;;;;5128744;28;19919;-47
2021/07/01 14:08:04;;;;;;;;;;;25.60;94.00;;;;;;5128464;28;19908;-47
2021/07/01 14:10:32;;;;;;;;;;;25.60;94.00;;;;;;5128145;28;19918;-52
2021/07/01 14:12:59;;;;;;;;;;;25.60;94.10;;;;;;5127728;28;20242;-53
2021/07/01 14:15:26;;;;;;;;;;;25.70;94.00;;;;;;5128207;28;19919;-48
2021/07/01 14:17:53;;;;;;;;;;;25.70;94.00;;;;;;5124950;28;19943;-48
2021/07/01 14:20:19;;;;;;;;;;;25.70;94.00;;;;;;5128013;28;19939;-46
2021/07/01 14:22:45;;;;;;;;;;;25.70;94.00;;;;;;5109666;28;19903;-49
2021/07/01 14:25:19;;;;;;;;;;;25.70;93.90;;;;;;5128192;28;19919;-54
2021/07/01 14:27:46;;;;;;;;;;;25.70;93.20;;;;;;5127907;28;19908;-50